Time;durP1;ratioP1;P1;durP2;ratioP2;P2;SDS_P1;SDS_P2;PMS_P1;PMS_P2;Temp;Humidity;BMP_temperature;BMP_pressure;BME280_temperature;BME280_humidity;BME280_pressure;Samples;Min_cycle;Max_cycle;Signal;HPM_P1;HPM_P2
2021/08/21 00:01:10;;;;;;;12.10;6.18;;;;;;;16.26;63.43;93610.28;5111867;28;20581;-46
2021/08/21 00:03:37;;;;;;;11.50;6.35;;;;;;;16.22;63.72;93602.34;5101032;28;20104;-46
2021/08/21 00:06:02;;;;;;;7.72;6.55;;;;;;;16.20;63.96;93616.13;5091645;28;20500;-47
2021/08/21 00:08:28;;;;;;;9.30;6.68;;;;;;;16.25;63.77;93608.81;5091843;28;20026;-47
2021/08/21 00:10:53;;;;;;;7.03;6.15;;;;;;;16.08;64.60;93618.00;5091533;28;20020;-47
2021/08/21 00:13:19;;;;;;;8.45;6.30;;;;;;;16.10;64.47;93615.38;5091912;28;20027;-47
2021/08/21 00:15:46;;;;;;;6.88;6.10;;;;;;;16.03;64.83;93616.22;5091543;28;20047;-47
2021/08/21 00:18:11;;;;;;;7.10;6.30;;;;;;;16.08;64.58;93620.06;5091506;28;20546;-46
2021/08/21 00:20:37;;;;;;;9.68;7.10;;;;;;;15.99;64.61;93617.97;5091613;28;20031;-50
2021/08/21 00:23:02;;;;;;;9.95;6.90;;;;;;;16.01;64.13;93624.44;5106614;28;20564;-46
2021/08/21 00:25:27;;;;;;;7.63;6.90;;;;;;;16.05;63.87;93621.22;5111795;28;20062;-46
2021/08/21 00:27:53;;;;;;;10.43;6.25;;;;;;;16.08;63.79;93623.56;5111520;28;20031;-48
2021/08/21 00:30:18;;;;;;;12.80;8.13;;;;;;;16.03;63.84;93623.84;5109739;28;20015;-47
2021/08/21 00:32:44;;;;;;;8.95;6.97;;;;;;;15.96;64.19;93614.28;5091496;28;20044;-47
2021/08/21 00:35:10;;;;;;;7.75;6.47;;;;;;;15.87;64.42;93615.72;5091267;28;20036;-46
2021/08/21 00:37:36;;;;;;;13.55;6.85;;;;;;;15.91;64.37;93615.31;5091299;28;20590;-47
2021/08/21 00:40:02;;;;;;;8.88;6.47;;;;;;;15.96;64.16;93617.06;5091335;28;20548;-46
2021/08/21 00:42:28;;;;;;;8.45;6.68;;;;;;;15.97;63.97;93621.34;5091245;28;20024;-46
2021/08/21 00:44:53;;;;;;;7.10;6.40;;;;;;;15.96;63.70;93608.00;5091339;28;20509;-47
2021/08/21 00:47:19;;;;;;;6.90;6.20;;;;;;;15.91;64.07;93604.16;5090830;28;20478;-47
2021/08/21 00:49:53;;;;;;;9.93;6.97;;;;;;;15.90;63.86;93616.59;5091049;28;20028;-47
2021/08/21 00:52:24;;;;;;;9.77;6.32;;;;;;;15.84;63.72;93616.16;5091073;28;20022;-47
2021/08/21 00:54:51;;;;;;;8.88;6.75;;;;;;;15.59;64.19;93593.31;5091238;28;20078;-46
2021/08/21 00:57:18;;;;;;;9.18;6.20;;;;;;;15.70;64.47;93618.56;5090848;28;20160;-46
2021/08/21 00:59:45;;;;;;;8.18;7.00;;;;;;;15.54;64.82;93617.31;5098916;28;20031;-47
2021/08/21 01:02:12;;;;;;;7.32;5.50;;;;;;;15.58;64.49;93616.88;5111033;28;20048;-46
2021/08/21 01:04:42;;;;;;;8.25;6.28;;;;;;;15.61;64.38;93618.53;5110196;28;20027;-46
2021/08/21 01:07:15;;;;;;;6.72;5.97;;;;;;;15.59;64.58;93613.53;5110944;28;20519;-47
2021/08/21 01:09:41;;;;;;;7.50;6.65;;;;;;;15.52;64.61;93616.41;5111484;28;20028;-46
2021/08/21 01:12:14;;;;;;;7.68;6.88;;;;;;;15.53;64.87;93635.31;5111022;28;20020;-47
2021/08/21 01:14:44;;;;;;;6.88;6.13;;;;;;;15.48;65.15;93630.75;5111130;28;20035;-47
2021/08/21 01:17:10;;;;;;;7.57;6.78;;;;;;;15.19;65.22;93596.41;5111349;28;20106;-46
2021/08/21 01:19:37;;;;;;;6.85;5.97;;;;;;;15.32;65.82;93626.66;5111022;28;20427;-48
2021/08/21 01:22:05;;;;;;;9.18;6.20;;;;;;;15.33;66.39;93627.41;5110994;28;20535;-48
2021/08/21 01:24:31;;;;;;;6.93;6.22;;;;;;;15.24;66.49;93637.16;5110921;28;20560;-48
2021/08/21 01:26:57;;;;;;;8.43;6.65;;;;;;;15.34;66.29;93635.16;5111333;28;20023;-48
2021/08/21 01:29:23;;;;;;;12.68;6.60;;;;;;;15.31;66.25;93635.59;5110913;28;20031;-48
2021/08/21 01:31:49;;;;;;;7.05;6.38;;;;;;;15.38;65.98;93631.97;5096599;28;20024;-49
2021/08/21 01:34:14;;;;;;;8.93;6.30;;;;;;;15.35;65.43;93628.31;5090823;28;20035;-48
2021/08/21 01:36:41;;;;;;;7.70;5.60;;;;;;;15.28;64.87;93631.91;5090475;28;20028;-48
2021/08/21 01:39:06;;;;;;;7.20;5.53;;;;;;;15.18;65.54;93631.13;5090860;28;20416;-47
2021/08/21 01:41:31;;;;;;;8.27;6.53;;;;;;;15.05;65.41;93615.50;5090505;28;20032;-47
2021/08/21 01:43:57;;;;;;;6.88;6.18;;;;;;;15.14;65.85;93633.56;5090843;28;20028;-47
2021/08/21 01:46:23;;;;;;;8.45;6.07;;;;;;;15.18;65.51;93628.34;5090598;28;20027;-48
2021/08/21 01:48:48;;;;;;;7.22;6.45;;;;;;;15.14;65.32;93636.34;5090543;28;20489;-48
2021/08/21 01:51:15;;;;;;;7.70;5.78;;;;;;;15.18;65.24;93631.84;5090377;28;20027;-49
2021/08/21 01:53:41;;;;;;;9.13;5.70;;;;;;;15.15;64.95;93643.38;5090143;28;20042;-47
2021/08/21 01:56:07;;;;;;;13.63;6.53;;;;;;;15.14;65.21;93639.84;5090674;28;20020;-46
2021/08/21 01:58:32;;;;;;;6.32;5.60;;;;;;;15.09;65.20;93635.28;5092035;28;20036;-47
2021/08/21 02:00:59;;;;;;;11.45;6.80;;;;;;;14.98;65.72;93646.19;5112450;28;20031;-48
2021/08/21 02:03:25;;;;;;;7.95;6.60;;;;;;;14.91;66.12;93642.16;5114352;28;20028;-47
2021/08/21 02:05:51;;;;;;;10.73;6.95;;;;;;;14.84;66.03;93636.69;5114614;28;20023;-47
2021/08/21 02:08:17;;;;;;;11.02;6.88;;;;;;;14.80;66.15;93625.22;5113041;28;20038;-47
2021/08/21 02:10:43;;;;;;;7.03;6.07;;;;;;;14.85;66.15;93638.91;5114447;28;20034;-47
2021/08/21 02:13:08;;;;;;;7.03;6.30;;;;;;;14.66;66.75;93644.28;5114532;28;20027;-48
2021/08/21 02:15:33;;;;;;;7.55;6.63;;;;;;;14.71;66.88;93643.31;5098813;28;20073;-49
2021/08/21 02:17:59;;;;;;;8.25;6.75;;;;;;;14.72;66.83;93646.81;5092267;28;20093;-48
2021/08/21 02:20:25;;;;;;;7.32;6.20;;;;;;;14.51;67.24;93619.41;5093859;28;20024;-47
2021/08/21 02:22:51;;;;;;;7.05;6.35;;;;;;;14.77;67.16;93643.06;5093715;28;20070;-47
2021/08/21 02:25:16;;;;;;;8.73;6.97;;;;;;;14.65;67.82;93642.81;5093579;28;20059;-49
2021/08/21 02:27:54;;;;;;;10.02;6.70;;;;;;;14.79;67.79;93655.06;5092616;28;20042;-48
2021/08/21 02:30:20;;;;;;;7.85;6.35;;;;;;;14.88;67.34;93659.97;5095374;28;20572;-49
2021/08/21 02:32:45;;;;;;;8.13;6.85;;;;;;;15.00;66.93;93660.97;5114023;28;20102;-49
2021/08/21 02:35:11;;;;;;;7.93;6.65;;;;;;;14.94;67.33;93660.47;5114093;28;20084;-49
2021/08/21 02:37:36;;;;;;;7.75;6.90;;;;;;;15.04;66.93;93668.91;5113998;28;20473;-49
2021/08/21 02:40:03;;;;;;;6.75;6.15;;;;;;;15.06;66.27;93663.50;5113642;28;20038;-49
2021/08/21 02:42:28;;;;;;;7.63;6.75;;;;;;;15.13;66.04;93659.91;5113555;28;20027;-50
2021/08/21 02:44:54;;;;;;;8.15;6.70;;;;;;;15.18;65.89;93656.16;5113407;28;20140;-49
2021/08/21 02:47:19;;;;;;;7.50;6.70;;;;;;;15.12;65.92;93672.34;5113837;27;20110;-49
2021/08/21 02:49:45;;;;;;;8.13;6.70;;;;;;;15.19;65.45;93660.38;5113754;28;20076;-48
2021/08/21 02:52:10;;;;;;;7.78;6.30;;;;;;;15.16;65.39;93662.28;5113671;28;20016;-48
2021/08/21 02:54:36;;;;;;;12.02;5.72;;;;;;;15.10;65.54;93670.13;5113571;28;20389;-47
2021/08/21 02:57:01;;;;;;;7.88;6.70;;;;;;;15.06;65.76;93669.81;5113709;28;20023;-48
2021/08/21 02:59:26;;;;;;;6.97;6.18;;;;;;;15.07;66.40;93671.25;5113303;28;20015;-49
2021/08/21 03:01:52;;;;;;;7.10;6.40;;;;;;;14.95;66.24;93661.97;5113141;28;20040;-46
2021/08/21 03:04:18;;;;;;;7.70;6.50;;;;;;;14.94;65.76;93652.13;5113342;28;20066;-46
2021/08/21 03:06:43;;;;;;;6.60;5.95;;;;;;;15.03;65.99;93668.16;5113149;28;20514;-48
2021/08/21 03:09:09;;;;;;;9.35;6.88;;;;;;;15.00;65.76;93663.75;5113372;28;20038;-46
2021/08/21 03:11:34;;;;;;;10.93;6.47;;;;;;;14.95;66.17;93661.97;5099676;28;20459;-47
2021/08/21 03:14:00;;;;;;;6.90;6.20;;;;;;;14.83;66.46;93658.19;5092948;28;20485;-46
2021/08/21 03:16:25;;;;;;;7.00;6.30;;;;;;;14.89;66.24;93674.63;5092455;28;20028;-47
2021/08/21 03:18:51;;;;;;;6.85;6.18;;;;;;;14.85;66.36;93675.03;5092553;28;20032;-47
2021/08/21 03:21:16;;;;;;;6.43;5.80;;;;;;;14.78;66.49;93677.88;5092706;28;20027;-46
2021/08/21 03:23:42;;;;;;;8.50;6.78;;;;;;;14.75;66.34;93676.97;5092718;28;20087;-46
2021/08/21 03:26:08;;;;;;;7.60;6.30;;;;;;;14.66;66.32;93685.25;5092733;28;20039;-47
2021/08/21 03:28:34;;;;;;;7.15;6.35;;;;;;;14.60;66.61;93691.03;5091202;28;20460;-47
2021/08/21 03:31:00;;;;;;;7.45;6.05;;;;;;;14.43;67.01;93683.38;5099539;28;20031;-46
2021/08/21 03:33:25;;;;;;;9.73;7.25;;;;;;;14.42;67.41;93679.13;5112955;28;20028;-46
2021/08/21 03:35:51;;;;;;;7.63;6.80;;;;;;;14.32;67.65;93680.31;5112596;28;20042;-46
2021/08/21 03:38:16;;;;;;;8.13;6.35;;;;;;;14.24;67.81;93679.63;5112738;28;20408;-47
2021/08/21 03:40:42;;;;;;;7.70;6.55;;;;;;;14.29;67.70;93673.88;5112434;28;20409;-48
2021/08/21 03:43:07;;;;;;;7.57;6.88;;;;;;;14.38;67.37;93680.81;5112481;28;20059;-45
2021/08/21 03:45:33;;;;;;;7.63;6.57;;;;;;;14.30;67.64;93689.22;5112712;28;20023;-46
2021/08/21 03:47:58;;;;;;;7.65;6.95;;;;;;;14.28;67.62;93685.53;5112393;28;20023;-46
2021/08/21 03:50:24;;;;;;;6.40;5.80;;;;;;;14.28;67.39;93688.28;5112480;28;20025;-46
2021/08/21 03:52:49;;;;;;;9.52;6.05;;;;;;;14.28;67.29;93688.28;5112183;28;20093;-46
2021/08/21 03:55:15;;;;;;;8.70;6.10;;;;;;;14.28;66.99;93685.53;5112212;28;20035;-46
2021/08/21 03:57:41;;;;;;;11.45;6.13;;;;;;;14.24;67.20;93694.25;5112195;28;20027;-46
2021/08/21 04:00:07;;;;;;;10.25;6.68;;;;;;;14.29;67.41;93693.31;5111938;28;20024;-47
2021/08/21 04:02:33;;;;;;;8.15;6.20;;;;;;;14.19;67.03;93675.78;5112257;28;20023;-46
2021/08/21 04:04:58;;;;;;;8.90;6.50;;;;;;;14.24;66.87;93687.97;5112344;28;20027;-46
2021/08/21 04:07:24;;;;;;;7.15;6.28;;;;;;;14.32;66.23;93688.66;5102174;28;20040;-46
2021/08/21 04:09:49;;;;;;;7.88;6.30;;;;;;;14.34;66.12;93697.16;5091525;28;20028;-47
2021/08/21 04:12:16;;;;;;;7.05;6.35;;;;;;;14.32;65.34;93691.44;5091403;28;20032;-47
2021/08/21 04:14:41;;;;;;;8.40;6.50;;;;;;;14.32;65.99;93692.19;5091768;28;20109;-47
2021/08/21 04:17:07;;;;;;;6.78;6.07;;;;;;;14.32;65.88;93699.78;5091498;28;20552;-46
2021/08/21 04:19:32;;;;;;;6.60;5.90;;;;;;;14.31;66.39;93695.53;5091485;28;20051;-46
2021/08/21 04:21:58;;;;;;;10.07;6.50;;;;;;;14.35;65.90;93687.53;5091284;28;20027;-46
2021/08/21 04:24:24;;;;;;;9.55;6.15;;;;;;;14.21;66.15;93680.75;5091462;28;20036;-48
2021/08/21 04:26:49;;;;;;;8.13;7.13;;;;;;;14.39;66.21;93693.44;5091647;28;20036;-48
2021/08/21 04:29:14;;;;;;;8.80;6.68;;;;;;;14.50;66.27;93692.97;5091605;28;20023;-48
2021/08/21 04:31:40;;;;;;;11.15;6.97;;;;;;;14.51;65.87;93697.19;5104631;28;20412;-46
2021/08/21 04:34:05;;;;;;;8.00;6.47;;;;;;;14.40;66.13;93700.47;5108483;28;20027;-48
2021/08/21 04:36:31;;;;;;;7.53;5.97;;;;;;;14.34;66.53;93695.13;5089753;28;20047;-48
2021/08/21 04:38:56;;;;;;;7.00;6.20;;;;;;;14.41;66.59;93696.38;5088888;28;20028;-48
2021/08/21 04:41:22;;;;;;;7.55;6.00;;;;;;;14.41;66.49;93704.72;5090267;28;20060;-48
2021/08/21 04:43:47;;;;;;;10.15;7.05;;;;;;;14.26;67.29;93699.97;5090684;28;20026;-47
2021/08/21 04:46:13;;;;;;;8.48;6.90;;;;;;;14.36;67.09;93702.88;5090960;28;20031;-48
2021/08/21 04:48:39;;;;;;;79.43;10.43;;;;;;;14.30;66.88;93696.81;5090817;28;20024;-47
2021/08/21 04:51:04;;;;;;;9.43;6.78;;;;;;;14.54;66.82;93704.41;5088622;28;20028;-47
2021/08/21 04:53:29;;;;;;;12.75;6.75;;;;;;;14.58;66.80;93707.53;5091320;28;20148;-46
2021/08/21 04:55:55;;;;;;;12.23;7.63;;;;;;;14.63;66.87;93703.03;5091210;28;20459;-47
2021/08/21 04:58:20;;;;;;;15.23;11.57;;;;;;;14.72;66.68;93711.50;5091572;28;20462;-47
2021/08/21 05:00:46;;;;;;;13.70;8.38;;;;;;;14.84;67.12;93708.94;5110642;28;20067;-47
2021/08/21 05:03:11;;;;;;;7.60;6.80;;;;;;;14.88;66.73;93698.91;5105284;28;20089;-48
2021/08/21 05:05:37;;;;;;;12.48;6.97;;;;;;;15.03;66.33;93709.88;5090374;28;20032;-49
2021/08/21 05:08:02;;;;;;;10.63;7.63;;;;;;;15.10;66.08;93711.84;5090820;28;20115;-47
2021/08/21 05:10:28;;;;;;;7.22;6.40;;;;;;;15.24;65.80;93720.59;5090945;28;20028;-48
2021/08/21 05:12:53;;;;;;;59.67;10.05;;;;;;;15.34;66.81;93706.75;5089537;28;20060;-47
2021/08/21 05:15:19;;;;;;;10.23;7.45;;;;;;;15.33;66.76;93717.19;5090370;28;20024;-47
2021/08/21 05:17:46;;;;;;;10.35;7.13;;;;;;;15.30;67.37;93717.56;5091833;28;20039;-48
2021/08/21 05:20:16;;;;;;;18.35;7.80;;;;;;;15.35;68.20;93719.38;5090734;28;20489;-48
2021/08/21 05:25:10;;;;;;;15.35;6.78;;;;;;;15.47;67.01;93721.09;5090583;28;20035;-45
2021/08/21 05:27:35;;;;;;;10.88;7.68;;;;;;;15.53;67.65;93723.63;5092066;28;20088;-48
2021/08/21 05:30:04;;;;;;;9.07;7.30;;;;;;;15.54;67.10;93717.50;5090618;28;20028;-48
2021/08/21 05:32:30;;;;;;;7.25;6.55;;;;;;;15.62;67.28;93723.72;5110794;28;20400;-46
2021/08/21 05:34:56;;;;;;;10.50;7.80;;;;;;;15.80;69.71;93725.16;5115114;28;20035;-48
2021/08/21 05:37:21;;;;;;;6.97;6.28;;;;;;;15.92;67.86;93728.13;5096675;28;20024;-46
2021/08/21 05:39:46;;;;;;;8.13;6.15;;;;;;;16.04;68.05;93717.97;5094565;28;20484;-46
2021/08/21 05:42:12;;;;;;;10.05;5.97;;;;;;;16.18;67.54;93716.28;5094748;28;20466;-45
2021/08/21 05:44:37;;;;;;;12.88;6.45;;;;;;;16.34;68.19;93722.34;5094609;28;20031;-46
2021/08/21 05:47:03;;;;;;;24.50;7.03;;;;;;;16.52;66.32;93716.16;5095403;28;20032;-46
2021/08/21 05:49:29;;;;;;;43.83;7.13;;;;;;;16.60;66.20;93713.25;5101867;28;20052;-46
2021/08/21 05:51:54;;;;;;;7.25;5.75;;;;;;;16.77;66.17;93715.19;5094398;28;20056;-45
2021/08/21 05:54:20;;;;;;;7.68;5.72;;;;;;;16.88;65.91;93712.59;5094273;28;20529;-45
2021/08/21 05:56:45;;;;;;;9.52;5.93;;;;;;;17.04;65.09;93708.22;5094372;28;20089;-46
2021/08/21 05:59:11;;;;;;;7.45;5.40;;;;;;;17.19;64.23;93712.78;5098086;28;20488;-45
2021/08/21 06:01:38;;;;;;;14.07;6.15;;;;;;;17.28;63.19;93712.06;5093732;28;20028;-45
2021/08/21 06:04:05;;;;;;;14.70;5.72;;;;;;;17.38;63.07;93715.59;5094253;28;20032;-47
2021/08/21 06:06:30;;;;;;;16.33;7.47;;;;;;;17.53;62.77;93718.13;5094140;28;20111;-45
2021/08/21 06:08:56;;;;;;;32.65;8.48;;;;;;;17.62;63.01;93722.97;5092756;28;20106;-46
2021/08/21 06:11:21;;;;;;;47.58;8.73;;;;;;;17.73;62.71;93719.59;5094032;28;20031;-45
2021/08/21 06:13:47;;;;;;;26.30;8.60;;;;;;;17.86;62.04;93715.59;5093820;28;20032;-45
2021/08/21 06:16:12;;;;;;;20.95;7.05;;;;;;;18.02;61.37;93716.72;5094027;28;20020;-45
2021/08/21 06:18:38;;;;;;;20.38;6.93;;;;;;;18.18;61.12;93720.66;5093869;28;20031;-46
2021/08/21 06:21:03;;;;;;;7.32;5.28;;;;;;;18.37;58.62;93715.00;5093648;28;20020;-46
2021/08/21 06:23:29;;;;;;;6.80;4.90;;;;;;;18.44;59.33;93693.81;5093651;28;20043;-45
2021/08/21 06:25:55;;;;;;;9.23;5.38;;;;;;;18.54;58.42;93692.47;5092660;28;20028;-45
2021/08/21 06:28:20;;;;;;;9.32;4.57;;;;;;;18.78;57.07;93719.28;5090998;28;20123;-46
2021/08/21 06:30:46;;;;;;;13.93;5.60;;;;;;;19.04;55.85;93719.56;5096791;28;20030;-46
2021/08/21 06:33:11;;;;;;;11.00;4.57;;;;;;;19.32;55.13;93708.19;5111369;28;20563;-45
2021/08/21 06:35:37;;;;;;;6.03;4.50;;;;;;;19.50;53.53;93709.44;5111408;28;20053;-45
2021/08/21 06:38:02;;;;;;;6.90;4.32;;;;;;;19.55;53.66;93705.56;5111406;28;20707;-46
2021/08/21 06:40:28;;;;;;;7.28;3.97;;;;;;;19.63;54.27;93703.28;5111154;28;20598;-44
2021/08/21 06:42:53;;;;;;;6.28;3.90;;;;;;;19.72;52.32;93698.19;5111201;27;20027;-46
2021/08/21 06:45:19;;;;;;;4.63;4.20;;;;;;;19.72;53.35;93701.72;5111383;28;20038;-46
2021/08/21 06:47:44;;;;;;;4.60;4.20;;;;;;;19.78;53.13;93706.97;5111088;28;20047;-45
2021/08/21 06:50:10;;;;;;;4.65;4.25;;;;;;;19.92;52.96;93707.91;5110986;28;20036;-47
2021/08/21 06:52:35;;;;;;;5.15;3.97;;;;;;;19.94;51.17;93705.22;5111188;28;20079;-45
2021/08/21 06:55:01;;;;;;;4.97;3.70;;;;;;;19.99;51.39;93706.94;5110703;28;20078;-46
2021/08/21 06:57:27;;;;;;;4.65;4.25;;;;;;;20.12;51.70;93703.56;5090595;28;20035;-45
2021/08/21 06:59:52;;;;;;;4.85;4.00;;;;;;;20.22;51.25;93713.38;5103643;28;20034;-46
2021/08/21 07:02:17;;;;;;;5.18;3.90;;;;;;;20.46;50.81;93710.59;5109303;28;20047;-45
2021/08/21 07:04:43;;;;;;;4.43;4.03;;;;;;;20.76;50.26;93712.44;5110949;28;20032;-45
2021/08/21 07:07:08;;;;;;;8.40;3.72;;;;;;;21.10;48.96;93706.84;5110954;28;20019;-45
2021/08/21 07:09:36;;;;;;;5.35;3.83;;;;;;;21.21;48.86;93699.75;5111113;28;20397;-46
2021/08/21 07:12:01;;;;;;;12.75;3.95;;;;;;;21.30;49.09;93703.75;5110878;28;20027;-45
2021/08/21 07:14:27;;;;;;;41.20;6.10;;;;;;;21.43;46.60;93706.66;5110617;28;20035;-45
2021/08/21 07:16:52;;;;;;;3.47;3.10;;;;;;;21.52;46.35;93707.84;5110633;28;20065;-44
2021/08/21 07:19:18;;;;;;;4.40;3.78;;;;;;;21.58;48.29;93697.69;5110772;28;20024;-44
2021/08/21 07:21:43;;;;;;;9.93;6.60;;;;;;;21.90;45.95;93698.81;5109212;28;20031;-46
2021/08/21 07:24:10;;;;;;;7.50;5.40;;;;;;;22.35;44.30;93688.66;5110631;28;20465;-46
2021/08/21 07:26:35;;;;;;;9.95;9.15;;;;;;;23.28;42.62;93704.88;5110195;28;20031;-45
2021/08/21 07:29:01;;;;;;;61.75;57.45;;;;;;;24.55;40.80;93711.09;5110270;28;20034;-46
2021/08/21 07:31:26;;;;;;;1567.63;916.53;;;;;;;25.68;38.04;93705.59;5109979;28;20099;-48
2021/08/21 07:33:52;;;;;;;1560.57;999.90;;;;;;;27.14;33.70;93709.97;5110548;28;20131;-46
2021/08/21 07:36:17;;;;;;;1414.72;999.90;;;;;;;29.14;31.40;93712.41;5110266;28;20420;-46
2021/08/21 07:38:43;;;;;;;1234.47;999.90;;;;;;;30.98;27.53;93700.09;5109974;28;20027;-46
2021/08/21 07:41:11;;;;;;;1115.15;994.95;;;;;;;32.60;25.71;93708.25;5109955;28;20027;-47
2021/08/21 07:43:36;;;;;;;1033.95;932.60;;;;;;;33.68;23.29;93704.75;5099410;28;20028;-46
2021/08/21 07:46:02;;;;;;;999.22;912.83;;;;;;;33.22;21.96;93699.16;5089479;28;20416;-47
2021/08/21 07:48:27;;;;;;;976.70;895.38;;;;;;;33.82;22.09;93711.38;5089364;28;20032;-46
2021/08/21 07:50:53;;;;;;;962.08;883.00;;;;;;;33.63;21.57;93712.59;5089500;28;20031;-46
2021/08/21 07:53:18;;;;;;;1063.00;964.75;;;;;;;31.76;23.68;93703.84;5106459;28;20062;-46
2021/08/21 07:55:43;;;;;;;1010.15;922.85;;;;;;;32.45;23.58;93709.41;5096387;28;20032;-48
2021/08/21 07:58:09;;;;;;;1012.28;923.53;;;;;;;33.32;22.37;93707.88;5089698;28;20028;-46
2021/08/21 08:00:35;;;;;;;940.47;862.00;;;;;;;34.39;19.92;93709.81;5093757;28;20063;-46
2021/08/21 08:03:00;;;;;;;952.35;871.85;;;;;;;33.70;20.90;93704.78;5087930;28;20405;-48
2021/08/21 08:05:26;;;;;;;973.65;884.30;;;;;;;32.65;21.25;93703.31;5089446;28;20101;-46
2021/08/21 08:07:51;;;;;;;973.42;893.60;;;;;;;32.48;22.42;93707.31;5089440;28;20035;-46
2021/08/21 08:10:17;;;;;;;1020.08;925.65;;;;;;;33.27;20.87;93706.34;5088923;28;20438;-48
2021/08/21 08:12:43;;;;;;;1008.00;919.13;;;;;;;32.73;21.19;93701.28;5101931;28;20032;-48
2021/08/21 08:15:09;;;;;;;992.15;905.95;;;;;;;32.63;21.44;93700.41;5109177;28;20028;-46
2021/08/21 08:17:35;;;;;;;1015.72;925.35;;;;;;;32.27;22.23;93709.09;5109570;28;20027;-46
2021/08/21 08:20:00;;;;;;;1027.70;933.53;;;;;;;32.56;21.93;93693.16;5109248;28;20034;-48
2021/08/21 08:22:26;;;;;;;960.97;881.85;;;;;;;34.42;20.61;93696.19;5091115;28;20089;-49
2021/08/21 08:24:52;;;;;;;985.58;902.28;;;;;;;35.45;19.08;93707.00;5089453;28;20516;-47
2021/08/21 08:27:18;;;;;;;944.22;868.60;;;;;;;36.80;17.43;93695.09;5089021;28;20033;-47
2021/08/21 08:29:44;;;;;;;924.83;855.22;;;;;;;38.05;17.17;93695.53;5093934;28;20055;-47
2021/08/21 08:32:09;;;;;;;941.20;869.40;;;;;;;38.94;15.57;93695.63;5109512;28;20389;-47
2021/08/21 08:34:35;;;;;;;867.15;807.70;;;;;;;40.10;14.65;93702.34;5109572;28;20191;-47
2021/08/21 08:37:01;;;;;;;844.45;783.70;;;;;;;41.11;14.38;93685.63;5109779;28;20027;-48
2021/08/21 08:39:27;;;;;;;838.28;777.90;;;;;;;41.30;13.88;93698.34;5109435;28;20062;-49
2021/08/21 08:41:52;;;;;;;831.60;772.38;;;;;;;42.18;13.17;93693.69;5109798;28;20059;-47
2021/08/21 08:44:22;;;;;;;781.72;728.17;;;;;;;41.78;12.61;93690.91;5109377;28;20488;-47
2021/08/21 08:46:48;;;;;;;761.17;707.60;;;;;;;41.39;13.21;93690.94;5109465;28;20055;-47
2021/08/21 08:49:15;;;;;;;801.05;745.45;;;;;;;41.92;13.59;93693.50;5109469;28;20058;-48
2021/08/21 08:51:41;;;;;;;769.63;716.72;;;;;;;41.58;13.24;93692.00;5109866;28;20020;-48
2021/08/21 08:54:07;;;;;;;781.55;728.20;;;;;;;41.64;13.63;93694.06;5108170;28;20622;-47
2021/08/21 08:56:32;;;;;;;771.50;717.35;;;;;;;41.45;13.92;93694.44;5109328;28;20043;-48
2021/08/21 08:58:58;;;;;;;787.13;732.70;;;;;;;40.81;14.24;93698.41;5108878;28;20035;-48
2021/08/21 09:01:23;;;;;;;789.05;733.33;;;;;;;40.40;14.43;93686.72;5108958;28;20047;-48
2021/08/21 09:03:49;;;;;;;785.95;727.22;;;;;;;38.94;15.70;93684.06;5107869;28;20028;-49
2021/08/21 09:06:14;;;;;;;828.13;768.13;;;;;;;38.25;16.37;93686.06;5109276;28;20034;-48
2021/08/21 09:08:40;;;;;;;799.88;743.75;;;;;;;39.16;15.47;93688.94;5111734;28;20031;-48
2021/08/21 09:11:20;;;;;;;836.72;773.25;;;;;;;37.40;16.63;93682.81;5113632;28;20024;-47
2021/08/21 09:13:46;;;;;;;927.63;852.03;;;;;;;35.84;18.54;93681.31;5106264;28;20036;-47
2021/08/21 09:16:11;;;;;;;881.28;815.33;;;;;;;36.50;17.64;93684.34;5111910;28;20104;-47
2021/08/21 09:18:37;;;;;;;889.50;822.63;;;;;;;37.28;17.89;93677.78;5113681;28;20055;-48
2021/08/21 09:21:04;;;;;;;859.50;795.50;;;;;;;37.66;16.15;93683.44;5113279;27;20032;-48
2021/08/21 09:23:41;;;;;;;855.70;794.83;;;;;;;37.66;15.80;93680.56;5113501;28;20046;-47
2021/08/21 09:26:35;;;;;;;848.55;788.45;;;;;;;37.99;16.60;93686.91;5113197;28;20027;-47
2021/08/21 09:29:01;;;;;;;849.70;786.83;;;;;;;37.56;16.69;93685.63;5113353;28;20560;-47
2021/08/21 09:31:32;;;;;;;897.15;827.67;;;;;;;37.36;17.20;93686.41;5112987;28;20523;-47
2021/08/21 09:34:08;;;;;;;897.47;829.20;;;;;;;36.54;17.77;93690.09;5113296;28;20160;-47
2021/08/21 09:36:37;;;;;;;1007.00;923.05;;;;;;;35.79;17.95;93681.31;5113277;28;20028;-48
2021/08/21 09:39:14;;;;;;;1006.17;924.55;;;;;;;35.69;18.06;93681.25;5112194;27;20059;-47
2021/08/21 09:42:09;;;;;;;978.70;898.15;;;;;;;36.33;18.18;93674.97;5112959;28;20063;-48
2021/08/21 09:44:41;;;;;;;941.25;868.80;;;;;;;36.93;17.25;93674.25;5103815;28;20039;-47
2021/08/21 09:47:26;;;;;;;871.47;807.97;;;;;;;38.16;15.86;93676.72;5113073;28;20035;-48
2021/08/21 09:49:54;;;;;;;834.75;776.83;;;;;;;38.89;15.61;93673.31;5099108;27;20413;-50
2021/08/21 09:52:20;;;;;;;837.53;777.78;;;;;;;38.61;15.69;93677.88;5090978;28;20518;-48
2021/08/21 09:55:14;;;;;;;815.15;757.65;;;;;;;38.98;15.68;93684.06;5092215;28;20128;-48
2021/08/21 09:57:40;;;;;;;819.63;762.25;;;;;;;39.08;14.86;93675.28;5092198;28;20032;-49
2021/08/21 10:00:06;;;;;;;833.65;773.25;;;;;;;38.84;15.27;93669.00;5102996;28;20039;-53
2021/08/21 10:02:32;;;;;;;823.45;764.33;;;;;;;38.48;15.77;93670.03;5110072;28;20030;-48
2021/08/21 10:04:58;;;;;;;833.17;775.47;;;;;;;38.93;15.17;93671.09;5102755;28;20035;-48
2021/08/21 10:07:29;;;;;;;808.72;751.83;;;;;;;39.22;15.43;93671.56;5103574;28;20401;-48
2021/08/21 10:09:55;;;;;;;799.88;744.15;;;;;;;39.19;14.88;93659.31;5112510;28;20469;-49
2021/08/21 10:12:22;;;;;;;807.88;751.22;;;;;;;39.11;15.17;93678.88;5103668;28;20094;-48
2021/08/21 10:14:49;;;;;;;806.20;749.67;;;;;;;39.77;14.45;93672.38;5102101;28;20122;-48
2021/08/21 10:17:19;;;;;;;796.40;739.50;;;;;;;40.03;14.21;93674.94;5095353;28;20460;-49
2021/08/21 10:19:46;;;;;;;782.50;728.67;;;;;;;40.24;13.66;93654.41;5091004;28;20760;-48
2021/08/21 10:22:11;;;;;;;771.25;718.35;;;;;;;40.53;14.38;93667.00;5091792;28;20055;-48
2021/08/21 10:24:40;;;;;;;744.78;693.80;;;;;;;41.62;12.50;93665.09;5091767;28;20048;-49
2021/08/21 10:27:28;;;;;;;698.47;650.63;;;;;;;42.28;11.64;93667.34;5091380;28;20500;-48
2021/08/21 10:29:59;;;;;;;;;;;;;;;42.09;11.96;93657.63;5092776;28;20034;-47
2021/08/21 10:32:30;;;;;;;677.65;630.65;;;;;;;41.76;12.08;93667.75;5100852;28;20018;-48
2021/08/21 10:34:55;;;;;;;717.40;667.03;;;;;;;40.29;13.05;93661.56;5091592;28;20036;-48
2021/08/21 10:37:43;;;;;;;938.33;736.75;;;;;;;39.10;14.33;93668.75;5091396;28;20032;-48
2021/08/21 10:40:26;;;;;;;836.80;775.65;;;;;;;38.89;14.53;93659.59;5091699;28;20028;-47
2021/08/21 10:42:58;;;;;;;838.78;776.03;;;;;;;39.04;15.30;93674.59;5091265;28;20063;-46
2021/08/21 10:45:39;;;;;;;796.10;739.65;;;;;;;40.20;14.16;93666.06;5105065;28;20040;-47
2021/08/21 10:48:28;;;;;;;793.30;738.20;;;;;;;40.70;14.27;93668.16;5111475;27;20067;-47
2021/08/21 10:50:54;;;;;;;736.95;685.80;;;;;;;41.41;12.87;93653.22;5107557;28;20043;-48
2021/08/21 10:53:30;;;;;;;738.22;686.40;;;;;;;41.07;12.45;93645.13;5110360;28;20521;-49
2021/08/21 10:56:01;;;;;;;755.67;702.53;;;;;;;40.45;13.16;93653.41;5111696;27;20436;-48
2021/08/21 10:58:28;;;;;;;813.92;755.33;;;;;;;38.39;14.55;93646.28;5111988;28;20050;-48
2021/08/21 11:00:58;;;;;;;859.88;796.75;;;;;;;37.11;16.64;93647.59;5111174;28;20424;-48
2021/08/21 11:03:23;;;;;;;916.70;847.55;;;;;;;35.75;17.69;93643.94;5110260;27;20036;-46
2021/08/21 11:06:08;;;;;;;937.72;864.72;;;;;;;36.30;16.96;93647.63;5111243;28;20049;-47
2021/08/21 11:08:40;;;;;;;964.42;886.60;;;;;;;36.54;16.11;93649.13;5111429;28;20031;-49
2021/08/21 11:11:08;;;;;;;982.70;905.75;;;;;;;36.40;16.34;93649.81;5111302;27;20110;-47
2021/08/21 11:13:57;;;;;;;988.08;907.80;;;;;;;35.99;15.92;93651.19;5111351;28;20039;-47
2021/08/21 11:16:27;;;;;;;994.10;915.15;;;;;;;35.20;16.86;93644.41;5111267;28;20514;-47
2021/08/21 11:18:53;;;;;;;1002.85;922.72;;;;;;;35.36;16.67;93638.75;5109622;28;20043;-47
2021/08/21 11:21:36;;;;;;;998.17;919.70;;;;;;;35.83;16.53;93642.50;5111003;28;20038;-47
2021/08/21 11:24:03;;;;;;;967.20;891.10;;;;;;;36.07;17.46;93642.59;5111501;28;20027;-48